CheckWX is a tool to help pilots better visualize weather data.  It is not intended as a substitute for an official pre-flight weather briefing.

12:21:39 UTC

KDET METAR
Coleman A Young Municipal Airport
Detroit, Michigan, USA
Current

29 mins ago

KDET 221153Z 35003KT 7SM CLR M04/M08 A3042 RMK AO2 SLP308 T10391083 11017 21039 51019
Observed
Feb-22 @ 11:53 UTC
Wind
  • 350° at 3 KTS
Visibility
7 SM
Flight Rules
VFR
Cloud Levels
  • Clear skies
Temperature
-4°C / 25°F
Dewpoint
-8°C / 18°F
Humidity
74%
Altimeter
30.42" Hg
Pressure
1030.8 hPa
Previous

1 hour ago

KDET 221053Z 35005KT 7SM CLR M04/M08 A3040 RMK AO2 SLP301 T10391078
Observed
Feb-22 @ 10:53 UTC
Wind
  • 350° at 5 KTS
Visibility
7 SM
Flight Rules
VFR
Cloud Levels
  • Clear skies
Temperature
-4°C / 25°F
Dewpoint
-8°C / 18°F
Humidity
74%
Altimeter
30.4" Hg
Pressure
1030.1 hPa
Previous

2 hours ago

KDET 220953Z 33003KT 8SM CLR M03/M08 A3039 RMK AO2 SLP297 T10281078
Observed
Feb-22 @ 09:53 UTC
Wind
  • 330° at 3 KTS
Visibility
8 SM
Flight Rules
VFR
Cloud Levels
  • Clear skies
Temperature
-3°C / 27°F
Dewpoint
-8°C / 18°F
Humidity
69%
Altimeter
30.39" Hg
Pressure
1029.7 hPa